Time;durP1;ratioP1;P1;durP2;ratioP2;P2;SDS_P1;SDS_P2;PMS_P1;PMS_P2;Temp;Humidity;BMP_temperature;BMP_pressure;BME280_temperature;BME280_humidity;BME280_pressure;Samples;Min_cycle;Max_cycle;Signal;HPM_P1;HPM_P2
2022/01/28 00:00:13;;;;;;;27.80;13.40;;;;;;;-1.07;73.15;95394.38;5055340;28;20536;-79
2022/01/28 00:02:58;;;;;;;25.92;14.27;;;;;;;-1.09;72.83;95380.69;5054753;28;20647;-79
2022/01/28 00:05:25;;;;;;;22.50;12.57;;;;;;;-1.10;73.76;95381.59;5038536;28;20210;-79
2022/01/28 00:07:53;;;;;;;25.20;12.52;;;;;;;-1.17;73.77;95375.78;5054165;28;20206;-79
2022/01/28 00:10:22;;;;;;;22.67;12.90;;;;;;;-1.18;74.29;95370.66;5054558;28;20211;-79
2022/01/28 00:13:13;;;;;;;18.92;11.50;;;;;;;-1.24;73.38;95364.00;5054382;28;20203;-79
2022/01/28 00:15:47;;;;;;;21.52;13.32;;;;;;;-1.30;73.04;95362.47;5053756;28;20665;-79
2022/01/28 00:38:01;;;;;;;17.77;11.50;;;;;;;-1.50;74.68;95359.66;4972941;28;20236;-79
2022/01/28 00:40:29;;;;;;;28.55;12.95;;;;;;;-1.46;74.05;95363.81;4940738;28;21321;-79
2022/01/28 00:42:57;;;;;;;34.50;13.75;;;;;;;-1.44;74.60;95356.06;4972130;28;20233;-79
2022/01/28 00:45:25;;;;;;;29.83;13.90;;;;;;;-1.46;74.56;95350.09;4972744;28;20197;-79
2022/01/28 00:47:52;;;;;;;19.90;12.70;;;;;;;-1.42;73.78;95349.13;4972682;28;20205;-79
2022/01/28 00:50:20;;;;;;;31.35;14.68;;;;;;;-1.47;74.45;95332.97;4973034;28;20209;-79
2022/01/28 00:52:47;;;;;;;26.85;16.38;;;;;;;-1.47;74.68;95335.53;4924779;28;20217;-79
2022/01/28 00:55:14;;;;;;;26.52;13.05;;;;;;;-1.43;74.00;95342.31;4972583;28;20671;-79
2022/01/28 00:57:41;;;;;;;20.83;13.52;;;;;;;-1.47;74.43;95335.53;5014000;28;20235;-79
2022/01/28 01:00:10;;;;;;;24.70;14.55;;;;;;;-1.49;73.64;95338.16;5053727;28;20211;-78
2022/01/28 01:02:37;;;;;;;22.83;13.65;;;;;;;-1.58;74.34;95335.88;5053377;28;20685;-78
2022/01/28 01:05:05;;;;;;;28.35;15.18;;;;;;;-1.63;73.96;95336.03;5035146;28;20208;-79
2022/01/28 01:07:34;;;;;;;26.08;13.38;;;;;;;-1.65;74.28;95326.69;5053581;28;20217;-78
2022/01/28 01:10:00;;;;;;;26.58;14.65;;;;;;;-1.65;74.95;95326.69;5053311;28;20217;-79
2022/01/28 01:12:31;;;;;;;20.80;13.50;;;;;;;-1.71;74.47;95321.72;5053832;28;20206;-79
2022/01/28 01:14:57;;;;;;;18.98;11.85;;;;;;;-1.74;74.89;95322.63;5053529;28;20213;-79
2022/01/28 01:17:31;;;;;;;25.05;15.02;;;;;;;-1.76;74.42;95315.84;5053118;28;20217;-79
2022/01/28 01:20:13;;;;;;;31.13;13.45;;;;;;;-1.74;75.02;95312.34;5053294;28;20230;-79
2022/01/28 01:22:41;;;;;;;28.73;13.30;;;;;;;-1.78;74.69;95309.91;5053284;28;20718;-77
2022/01/28 01:25:16;;;;;;;20.92;12.45;;;;;;;-1.86;75.33;95310.16;5053204;28;20234;-79
2022/01/28 01:27:47;;;;;;;20.45;12.57;;;;;;;-1.90;75.24;95306.84;5053182;28;20220;-79
2022/01/28 01:30:18;;;;;;;19.80;12.20;;;;;;;-1.90;75.56;95293.97;5053287;28;20220;-79
2022/01/28 01:32:45;;;;;;;18.95;12.10;;;;;;;-1.88;75.53;95284.50;5053052;28;20242;-78
2022/01/28 01:35:12;;;;;;;22.60;12.45;;;;;;;-1.92;74.39;95277.75;5053276;28;20233;-79
2022/01/28 01:37:40;;;;;;;20.92;12.18;;;;;;;-1.95;74.52;95280.44;5053498;28;20209;-79
2022/01/28 01:40:08;;;;;;;18.30;12.55;;;;;;;-2.00;74.45;95284.03;5053161;28;20203;-78
2022/01/28 01:42:44;;;;;;;15.38;10.65;;;;;;;-2.06;74.83;95269.59;5053214;28;20261;-79
2022/01/28 01:53:21;;;;;;;18.02;12.00;;;;;;;-2.10;75.60;95254.31;4972185;28;20246;-79
2022/01/28 01:55:49;;;;;;;23.65;14.30;;;;;;;-2.07;76.06;95256.78;4975954;28;20212;-79
2022/01/28 01:58:17;;;;;;;20.42;11.60;;;;;;;-2.07;76.12;95262.78;4975755;28;20200;-79
2022/01/28 02:00:44;;;;;;;22.50;12.80;;;;;;;-2.08;76.38;95263.66;4975976;28;20190;-78
2022/01/28 02:03:11;;;;;;;23.05;12.73;;;;;;;-2.08;76.08;95261.09;4975560;28;20233;-78
2022/01/28 02:05:38;;;;;;;15.75;11.23;;;;;;;-2.10;75.73;95268.00;4975361;28;20216;-78
2022/01/28 02:08:06;;;;;;;21.48;12.23;;;;;;;-2.13;76.10;95268.09;4975889;28;20216;-78
2022/01/28 02:10:35;;;;;;;18.95;12.20;;;;;;;-2.16;75.85;95260.50;4975718;28;20209;-79
2022/01/28 02:13:02;;;;;;;26.40;11.85;;;;;;;-2.08;74.84;95268.81;4975576;28;20216;-79
2022/01/28 02:15:29;;;;;;;15.27;11.18;;;;;;;-2.11;75.00;95260.34;4975650;28;20241;-79
2022/01/28 02:17:58;;;;;;;17.52;11.20;;;;;;;-2.09;75.32;95254.28;4975502;28;20205;-79
2022/01/28 02:20:31;;;;;;;19.58;11.10;;;;;;;-2.09;75.78;95254.28;4975515;28;20212;-79
2022/01/28 02:22:57;;;;;;;26.70;11.95;;;;;;;-2.11;75.23;95256.06;4975635;28;20810;-79
2022/01/28 02:25:26;;;;;;;19.67;10.80;;;;;;;-2.15;75.17;95246.75;5023870;28;20199;-78
2022/01/28 02:27:55;;;;;;;21.02;12.15;;;;;;;-2.17;75.22;95238.25;5004049;28;20696;-79
2022/01/28 02:30:21;;;;;;;20.88;12.60;;;;;;;-2.10;74.41;95252.59;5019618;28;20203;-78
2022/01/28 02:32:50;;;;;;;18.67;11.07;;;;;;;-2.10;74.82;95241.47;5055026;28;20237;-79
2022/01/28 02:35:17;;;;;;;24.55;11.30;;;;;;;-2.13;75.05;95232.13;5055384;28;20887;-79
2022/01/28 02:37:46;;;;;;;24.17;13.52;;;;;;;-2.14;74.87;95230.44;5055146;28;20199;-78
2022/01/28 02:40:13;;;;;;;29.25;11.23;;;;;;;-2.17;73.73;95230.53;5055929;28;20217;-79
2022/01/28 02:42:57;;;;;;;25.75;12.27;;;;;;;-2.19;74.09;95227.16;5056273;28;20203;-78
2022/01/28 02:45:32;;;;;;;25.45;13.63;;;;;;;-2.22;74.89;95237.56;5056378;28;20203;-78
2022/01/28 02:48:02;;;;;;;20.13;12.45;;;;;;;-2.21;74.74;95231.50;5055849;28;20194;-79
2022/01/28 02:50:33;;;;;;;22.08;12.63;;;;;;;-2.20;75.33;95230.63;5056259;28;20202;-79
2022/01/28 02:53:07;;;;;;;21.20;11.85;;;;;;;-2.24;75.41;95237.59;5055667;28;20260;-79
2022/01/28 02:55:39;;;;;;;21.45;12.57;;;;;;;-2.32;75.15;95226.69;5055865;28;20214;-78
2022/01/28 02:58:18;;;;;;;21.60;12.30;;;;;;;-2.32;75.06;95225.84;5055764;28;20211;-79
2022/01/28 03:00:47;;;;;;;19.92;11.75;;;;;;;-2.31;74.67;95237.84;5055679;28;20222;-79
2022/01/28 03:03:14;;;;;;;19.23;11.77;;;;;;;-2.30;75.01;95226.66;5020670;28;20301;-79
2022/01/28 03:05:41;;;;;;;21.67;12.02;;;;;;;-2.38;75.12;95216.59;5055206;28;20203;-79
2022/01/28 03:08:10;;;;;;;21.55;12.50;;;;;;;-2.41;75.65;95214.13;5055323;28;20659;-78
2022/01/28 03:13:46;;;;;;;20.00;11.40;;;;;;;-2.41;76.34;95224.38;4974605;28;20218;-77
2022/01/28 03:16:16;;;;;;;16.58;9.98;;;;;;;-2.41;76.26;95221.81;4974561;28;20308;-78
2022/01/28 03:18:51;;;;;;;20.42;11.20;;;;;;;-2.37;75.80;95223.41;4958119;28;20210;-79
2022/01/28 03:24:02;;;;;;;18.02;10.32;;;;;;;-2.43;75.85;95203.03;4972188;28;20701;-79
2022/01/28 03:26:28;;;;;;;17.48;10.27;;;;;;;-2.42;76.26;95214.16;4974642;28;20212;-78
2022/01/28 03:28:55;;;;;;;17.52;10.18;;;;;;;-2.41;76.34;95197.84;4974847;28;20189;-79
2022/01/28 03:31:23;;;;;;;16.60;8.10;;;;;;;-2.39;76.30;95198.66;4974109;28;20725;-79
2022/01/28 03:33:50;;;;;;;16.98;9.82;;;;;;;-2.35;76.63;95200.22;4942018;28;20209;-78
2022/01/28 03:36:16;;;;;;;13.77;10.40;;;;;;;-2.31;76.62;95199.28;4974055;28;20211;-78
2022/01/28 03:38:46;;;;;;;17.15;10.23;;;;;;;-2.32;76.71;95200.13;4974575;28;20216;-79
2022/01/28 03:41:17;;;;;;;18.30;9.57;;;;;;;-2.30;76.09;95185.53;4974018;28;20227;-78
2022/01/28 03:43:44;;;;;;;16.85;11.20;;;;;;;-2.34;75.93;95171.09;4974110;28;20229;-78
2022/01/28 03:46:11;;;;;;;19.13;10.13;;;;;;;-2.33;75.78;95170.19;4974040;28;20341;-79
2022/01/28 03:48:38;;;;;;;13.80;8.70;;;;;;;-2.32;76.25;95171.88;4941532;28;20209;-79
2022/01/28 03:51:05;;;;;;;20.00;11.15;;;;;;;-2.30;75.77;95170.13;5036284;28;20206;-77
2022/01/28 03:53:32;;;;;;;13.40;9.20;;;;;;;-2.28;75.82;95173.50;5054961;28;20214;-79
2022/01/28 03:55:59;;;;;;;14.65;9.80;;;;;;;-2.28;75.80;95166.63;5055051;28;20209;-79
2022/01/28 03:58:28;;;;;;;21.58;11.70;;;;;;;-2.28;76.33;95156.34;5054522;28;20661;-79
2022/01/28 04:00:57;;;;;;;17.85;10.80;;;;;;;-2.32;75.78;95156.47;5054394;28;20187;-78
2022/01/28 04:03:39;;;;;;;15.40;9.82;;;;;;;-2.36;75.86;95157.44;5054349;28;20317;-79
2022/01/28 04:11:39;;;;;;;18.45;10.45;;;;;;;-2.51;75.25;95151.91;4973496;28;20200;-79
2022/01/28 04:14:12;;;;;;;18.35;10.63;;;;;;;-2.50;75.65;95150.16;4973454;28;20208;-78
2022/01/28 04:19:24;;;;;;;15.35;9.40;;;;;;;-2.48;75.16;95132.97;4973574;28;20204;-78
2022/01/28 04:21:51;;;;;;;16.77;9.52;;;;;;;-2.52;76.41;95147.66;4940984;28;20202;-81
2022/01/28 04:24:17;;;;;;;33.22;11.00;;;;;;;-2.53;76.52;95155.41;4973110;28;20240;-79
2022/01/28 04:26:44;;;;;;;18.17;10.57;;;;;;;-2.58;76.43;95136.72;4973410;28;20205;-78
2022/01/28 04:29:13;;;;;;;14.00;10.30;;;;;;;-2.59;76.25;95141.03;4973094;28;20216;-77
2022/01/28 04:31:43;;;;;;;19.98;9.70;;;;;;;-2.57;76.08;95170.06;4973119;28;20324;-79
2022/01/28 04:34:11;;;;;;;16.77;10.35;;;;;;;-2.53;75.90;95163.94;4972992;28;20202;-78
2022/01/28 04:36:45;;;;;;;14.98;10.95;;;;;;;-2.51;76.68;95162.16;4956891;28;20201;-79
2022/01/28 04:39:19;;;;;;;19.88;10.38;;;;;;;-2.46;76.22;95174.88;4972953;28;20204;-78
2022/01/28 04:41:55;;;;;;;19.63;11.88;;;;;;;-2.49;76.92;95164.69;4973052;28;20224;-79
2022/01/28 04:44:31;;;;;;;22.20;12.43;;;;;;;-2.57;77.19;95166.66;4973197;28;20648;-78
2022/01/28 04:47:03;;;;;;;22.90;13.50;;;;;;;-2.62;76.83;95164.19;5049028;28;20206;-78
2022/01/28 04:49:42;;;;;;;24.20;13.73;;;;;;;-2.67;76.79;95171.19;5053891;28;20280;-78
2022/01/28 04:52:28;;;;;;;25.90;13.98;;;;;;;-2.67;76.23;95168.63;5053666;28;20207;-79
2022/01/28 04:55:05;;;;;;;24.17;13.30;;;;;;;-2.75;76.98;95174.88;5010426;28;20214;-78
2022/01/28 04:57:40;;;;;;;26.77;13.00;;;;;;;-2.78;76.61;95175.81;5054086;28;20206;-78
2022/01/28 05:00:19;;;;;;;23.33;13.07;;;;;;;-2.82;76.09;95184.50;5053435;28;20216;-78
2022/01/28 05:03:03;;;;;;;24.23;12.27;;;;;;;-2.82;76.74;95189.63;5053542;28;20234;-79
2022/01/28 05:06:03;;;;;;;23.92;12.63;;;;;;;-2.83;76.89;95190.53;5052916;28;20229;-78
2022/01/28 05:09:04;;;;;;;22.02;12.18;;;;;;;-2.87;76.70;95192.34;5053466;28;20202;-78
2022/01/28 05:14:38;;;;;;;22.35;11.63;;;;;;;-2.91;76.86;95188.16;5053604;28;20788;-79
2022/01/28 05:23:17;;;;;;;23.05;13.25;;;;;;;-2.94;76.43;95187.38;5053100;28;20719;-79
2022/01/28 05:28:24;;;;;;;26.25;14.75;;;;;;;-2.94;78.34;95177.97;5056085;28;20202;-80
2022/01/28 05:30:51;;;;;;;32.70;14.02;;;;;;;-2.94;78.30;95177.13;5059728;28;20293;-78
2022/01/28 05:33:36;;;;;;;19.70;12.48;;;;;;;-2.98;78.18;95168.66;5060502;28;20203;-79
2022/01/28 05:36:09;;;;;;;28.83;12.93;;;;;;;-2.89;78.53;95183.84;4978582;28;20201;-78
2022/01/28 05:38:36;;;;;;;22.20;12.85;;;;;;;-2.86;78.01;95185.47;4978528;28;20205;-80
2022/01/28 05:41:03;;;;;;;28.88;12.88;;;;;;;-2.88;78.17;95182.94;4978495;28;20233;-77
2022/01/28 05:43:29;;;;;;;26.08;13.80;;;;;;;-2.93;78.92;95179.66;4978513;28;20221;-77
2022/01/28 05:45:56;;;;;;;21.27;12.30;;;;;;;-2.88;78.89;95187.25;4978169;28;20216;-77
2022/01/28 05:48:23;;;;;;;25.67;14.88;;;;;;;-2.85;78.94;95194.84;4978112;28;20205;-77
2022/01/28 05:50:52;;;;;;;38.92;14.80;;;;;;;-2.79;80.16;95198.97;4978106;28;20205;-77
2022/01/28 05:53:18;;;;;;;27.88;13.57;;;;;;;-2.74;79.46;95190.25;4978202;28;20205;-78
2022/01/28 05:55:45;;;;;;;33.25;15.13;;;;;;;-2.67;78.86;95194.31;4978307;28;20216;-77
2022/01/28 05:58:12;;;;;;;22.25;14.45;;;;;;;-2.63;77.88;95180.50;4978205;28;20216;-78
2022/01/28 06:00:39;;;;;;;26.25;15.35;;;;;;;-2.59;77.50;95187.25;4978198;28;20216;-77
2022/01/28 06:03:06;;;;;;;29.90;15.57;;;;;;;-2.52;76.99;95187.91;4978669;28;20636;-80
2022/01/28 06:05:34;;;;;;;25.45;14.15;;;;;;;-2.47;76.42;95200.59;4978539;28;20228;-77
2022/01/28 06:08:02;;;;;;;26.48;15.90;;;;;;;-2.47;76.33;95187.75;4978212;28;20247;-77
2022/01/28 06:10:29;;;;;;;30.38;16.85;;;;;;;-2.17;75.94;95183.44;4978380;28;20206;-77
2022/01/28 06:12:56;;;;;;;35.17;15.48;;;;;;;-1.37;74.43;95192.84;5006847;28;20696;-79
2022/01/28 06:15:23;;;;;;;23.65;13.05;;;;;;;-0.46;72.17;95193.88;5059232;28;20521;-77
2022/01/28 06:17:50;;;;;;;30.55;12.60;;;;;;;0.37;69.67;95192.38;5059133;28;20203;-77
2022/01/28 06:20:19;;;;;;;26.30;15.05;;;;;;;0.78;66.04;95206.16;5059404;28;20207;-78
2022/01/28 06:22:46;;;;;;;23.70;14.10;;;;;;;0.66;65.18;95211.00;5059085;28;20236;-78
2022/01/28 06:25:15;;;;;;;23.00;13.30;;;;;;;0.54;64.54;95214.91;5058807;28;20525;-78
2022/01/28 06:27:43;;;;;;;27.20;15.43;;;;;;;0.44;65.71;95219.59;5007033;28;20929;-79
2022/01/28 06:30:11;;;;;;;28.58;16.27;;;;;;;0.44;65.55;95221.34;5059470;28;20537;-77
2022/01/28 06:32:37;;;;;;;27.65;16.80;;;;;;;0.39;65.42;95221.53;5058903;28;20268;-77
2022/01/28 06:35:08;;;;;;;33.17;17.95;;;;;;;0.22;65.98;95214.44;5058957;28;20537;-78
2022/01/28 06:37:36;;;;;;;26.42;17.80;;;;;;;0.14;67.02;95228.56;5059493;28;20514;-77
2022/01/28 06:40:03;;;;;;;28.65;15.30;;;;;;;0.04;67.37;95224.66;5056810;28;20208;-76
2022/01/28 06:42:32;;;;;;;27.73;15.48;;;;;;;-0.05;68.88;95221.50;5056120;28;20203;-78
2022/01/28 06:44:58;;;;;;;42.08;19.38;;;;;;;-0.17;68.72;95216.84;5055649;28;20223;-78
2022/01/28 06:47:26;;;;;;;32.20;18.60;;;;;;;-0.17;69.18;95227.16;5055801;28;20572;-78
2022/01/28 06:49:53;;;;;;;42.08;21.38;;;;;;;-0.17;69.37;95216.00;5003927;28;20227;-78
2022/01/28 06:52:20;;;;;;;92.97;47.00;;;;;;;-0.21;70.15;95215.28;5055492;28;20247;-78
2022/01/28 06:54:47;;;;;;;78.75;40.05;;;;;;;-0.19;70.58;95216.06;5054781;28;20208;-79
2022/01/28 06:57:13;;;;;;;85.72;43.28;;;;;;;-0.13;70.96;95223.56;5054688;28;20211;-78
2022/01/28 06:59:43;;;;;;;60.38;35.88;;;;;;;0.01;70.53;95210.16;5054377;28;20215;-78
2022/01/28 07:02:10;;;;;;;46.50;27.58;;;;;;;0.26;69.60;95225.47;5054605;28;20214;-77
2022/01/28 07:04:37;;;;;;;49.08;28.65;;;;;;;0.44;68.32;95224.75;5054574;28;20224;-79
2022/01/28 07:07:06;;;;;;;47.35;29.20;;;;;;;0.53;68.17;95224.38;5054654;28;20200;-78
2022/01/28 07:09:34;;;;;;;39.83;21.75;;;;;;;0.63;68.54;95224.88;5054337;28;20203;-79
2022/01/28 07:12:01;;;;;;;39.50;23.92;;;;;;;0.79;67.94;95225.91;5054213;28;20205;-78
2022/01/28 07:14:28;;;;;;;53.60;29.52;;;;;;;1.04;66.66;95233.47;5054536;28;20205;-77
2022/01/28 07:16:57;;;;;;;39.43;21.00;;;;;;;1.26;67.30;95240.31;5019646;28;20219;-78
2022/01/28 07:19:24;;;;;;;29.38;18.73;;;;;;;1.43;67.00;95246.41;5054066;28;20455;-79
2022/01/28 07:21:51;;;;;;;34.08;19.15;;;;;;;1.52;66.73;95245.19;5054071;28;20205;-79
2022/01/28 07:24:19;;;;;;;60.95;25.05;;;;;;;1.63;66.23;95247.31;5053965;28;20581;-79
2022/01/28 07:26:46;;;;;;;42.73;22.37;;;;;;;1.78;66.16;95254.41;5002393;28;20212;-78
2022/01/28 07:29:14;;;;;;;39.60;22.73;;;;;;;1.88;65.46;95244.47;5054498;28;20452;-77
2022/01/28 07:31:41;;;;;;;39.40;21.27;;;;;;;1.92;65.24;95246.84;5002094;28;20484;-78
2022/01/28 07:34:10;;;;;;;34.90;18.50;;;;;;;1.89;65.35;95246.13;5054370;28;20964;-79
2022/01/28 07:36:39;;;;;;;31.17;18.43;;;;;;;1.93;65.97;95247.66;5054298;28;20452;-78
2022/01/28 07:39:07;;;;;;;36.17;20.40;;;;;;;2.00;65.88;95252.50;5053913;28;20453;-79
2022/01/28 07:41:34;;;;;;;27.67;19.30;;;;;;;1.93;65.64;95265.78;5053889;28;20474;-79
2022/01/28 07:44:02;;;;;;;32.07;19.03;;;;;;;1.79;66.57;95272.44;5053497;28;20985;-78
2022/01/28 07:46:28;;;;;;;51.80;24.10;;;;;;;1.52;66.70;95276.22;5053814;28;20455;-79
2022/01/28 07:48:55;;;;;;;31.90;20.50;;;;;;;1.29;68.20;95263.44;5053825;28;20452;-78
2022/01/28 07:51:24;;;;;;;38.60;25.07;;;;;;;1.33;67.91;95272.75;5052558;28;20807;-77
2022/01/28 07:53:51;;;;;;;39.38;20.95;;;;;;;1.33;68.97;95275.34;5053269;28;20947;-79
2022/01/28 07:56:18;;;;;;;53.93;25.00;;;;;;;1.08;69.64;95278.94;5053517;28;20305;-78
2022/01/28 07:58:45;;;;;;;54.17;27.95;;;;;;;1.08;70.73;95278.94;5053179;28;20829;-77
2022/01/28 08:01:12;;;;;;;44.28;26.35;;;;;;;0.97;71.18;95286.31;5053631;28;20543;-77
2022/01/28 08:03:39;;;;;;;45.07;26.03;;;;;;;1.12;71.34;95285.66;5053490;28;20209;-78
2022/01/28 08:06:05;;;;;;;48.00;22.73;;;;;;;1.29;70.69;95284.97;5053262;28;20482;-77
2022/01/28 08:08:34;;;;;;;32.17;17.38;;;;;;;1.12;70.37;95284.81;5053359;28;20208;-78
2022/01/28 08:11:01;;;;;;;42.67;19.97;;;;;;;0.94;71.07;95278.69;5053129;28;20208;-78
2022/01/28 08:13:27;;;;;;;51.33;19.23;;;;;;;0.77;71.35;95263.03;5053053;28;20961;-77
2022/01/28 08:15:55;;;;;;;32.15;16.92;;;;;;;0.73;72.04;95257.16;5053433;28;20443;-79
2022/01/28 08:18:21;;;;;;;35.93;16.90;;;;;;;0.86;72.02;95247.97;5053193;28;20198;-77
2022/01/28 08:20:48;;;;;;;26.27;15.27;;;;;;;0.96;71.45;95258.78;5053023;28;20837;-78
2022/01/28 08:23:15;;;;;;;30.67;16.13;;;;;;;0.89;71.20;95239.28;5053077;28;20236;-78
2022/01/28 08:25:44;;;;;;;47.80;18.60;;;;;;;1.04;71.62;95237.81;5052619;28;20231;-78
2022/01/28 08:28:11;;;;;;;32.50;16.77;;;;;;;1.07;71.33;95242.84;5053059;28;20783;-78
2022/01/28 08:30:39;;;;;;;22.87;13.57;;;;;;;1.20;70.95;95249.19;5052953;28;20208;-77
2022/01/28 08:33:07;;;;;;;29.50;17.30;;;;;;;1.28;70.78;95244.50;5052896;28;20480;-78
2022/01/28 08:35:37;;;;;;;27.93;16.93;;;;;;;1.29;70.63;95246.19;5052932;28;20446;-79
2022/01/28 08:38:12;;;;;;;33.83;16.53;;;;;;;1.09;70.14;95233.28;5052919;28;20455;-78
2022/01/28 08:40:39;;;;;;;38.75;18.63;;;;;;;0.90;71.16;95235.81;5052858;28;20473;-77
2022/01/28 08:43:08;;;;;;;43.63;19.42;;;;;;;0.83;72.09;95229.19;5001534;28;20197;-78
2022/01/28 08:45:35;;;;;;;32.80;16.70;;;;;;;0.69;72.60;95228.94;5017554;28;20224;-79
2022/01/28 08:48:02;;;;;;;38.53;17.52;;;;;;;0.90;71.57;95233.22;5052429;28;20204;-77
2022/01/28 08:50:29;;;;;;;31.97;14.07;;;;;;;0.93;71.33;95238.25;5052546;28;20204;-79
2022/01/28 08:52:55;;;;;;;25.00;14.23;;;;;;;0.92;72.24;95242.59;5052355;28;20454;-77
2022/01/28 08:55:23;;;;;;;46.08;14.48;;;;;;;1.01;71.63;95240.50;5052712;28;20212;-77
2022/01/28 08:57:50;;;;;;;44.35;13.27;;;;;;;0.82;71.93;95245.59;5017642;28;20200;-77
2022/01/28 09:00:19;;;;;;;32.03;16.50;;;;;;;0.91;71.99;95255.56;5052410;28;20713;-77
2022/01/28 09:02:46;;;;;;;24.13;14.38;;;;;;;0.91;71.19;95255.56;5051732;28;20206;-77
2022/01/28 09:05:13;;;;;;;36.50;19.05;;;;;;;1.07;71.66;95260.91;5000935;28;20220;-77
2022/01/28 09:07:40;;;;;;;53.50;20.55;;;;;;;1.26;71.39;95256.66;5052848;28;20531;-78
2022/01/28 09:10:13;;;;;;;30.23;13.43;;;;;;;1.43;71.22;95256.75;5052441;28;20227;-78
2022/01/28 09:12:48;;;;;;;36.50;18.03;;;;;;;1.47;70.40;95260.09;5052422;28;20205;-77
2022/01/28 09:15:16;;;;;;;34.17;16.97;;;;;;;1.56;70.47;95249.31;5052139;28;20501;-78
2022/01/28 09:17:44;;;;;;;25.63;15.40;;;;;;;1.72;69.91;95252.06;5052155;28;20452;-77
2022/01/28 09:20:11;;;;;;;30.30;15.23;;;;;;;1.68;68.88;95255.69;5051967;28;20582;-78
2022/01/28 09:22:38;;;;;;;40.10;19.60;;;;;;;1.88;68.57;95266.00;5052331;28;20482;-78
2022/01/28 09:25:06;;;;;;;40.10;16.07;;;;;;;2.00;68.02;95254.25;5051860;28;20515;-77
2022/01/28 09:27:33;;;;;;;36.53;17.77;;;;;;;2.13;67.90;95250.19;5051944;28;20454;-78
2022/01/28 09:30:00;;;;;;;43.13;20.63;;;;;;;2.18;67.56;95256.00;5051992;28;20527;-77
2022/01/28 09:32:27;;;;;;;34.10;18.47;;;;;;;2.36;67.23;95249.97;5000480;28;20480;-78
2022/01/28 09:34:55;;;;;;;27.60;16.97;;;;;;;2.66;66.85;95254.59;5051919;28;20451;-78
2022/01/28 09:37:22;;;;;;;28.43;15.87;;;;;;;2.74;65.51;95261.09;5051999;28;20458;-77
2022/01/28 09:39:49;;;;;;;30.87;17.70;;;;;;;2.86;64.44;95267.41;5051943;28;20451;-78
2022/01/28 09:42:19;;;;;;;37.63;17.00;;;;;;;2.95;64.59;95261.81;5052266;28;20802;-78
2022/01/28 09:44:46;;;;;;;33.40;16.70;;;;;;;3.07;64.55;95273.31;5051798;28;20575;-78
2022/01/28 09:47:15;;;;;;;39.70;18.80;;;;;;;3.15;63.94;95270.31;5051667;28;20497;-77
2022/01/28 09:49:42;;;;;;;38.63;17.17;;;;;;;3.17;62.82;95265.91;5051748;28;20925;-78
2022/01/28 09:52:12;;;;;;;40.90;14.97;;;;;;;3.28;62.67;95268.81;5052046;28;20817;-77
2022/01/28 09:54:43;;;;;;;41.43;16.67;;;;;;;3.49;62.14;95274.69;5000608;28;20442;-78
2022/01/28 09:57:10;;;;;;;38.67;17.07;;;;;;;3.66;61.58;95265.09;5051899;28;20947;-78
2022/01/28 09:59:38;;;;;;;38.37;17.90;;;;;;;3.40;61.42;95255.22;5051560;28;20441;-78
2022/01/28 10:02:06;;;;;;;21.80;12.83;;;;;;;3.41;61.50;95260.31;5051784;28;20441;-78
2022/01/28 10:04:33;;;;;;;28.13;13.73;;;;;;;3.31;62.48;95263.47;5051520;28;20932;-78
2022/01/28 10:07:11;;;;;;;26.73;12.53;;;;;;;3.43;62.53;95257.66;5051777;28;20479;-77
2022/01/28 10:09:54;;;;;;;28.27;12.03;;;;;;;2.88;62.63;95263.00;5051592;28;20445;-78
2022/01/28 10:12:29;;;;;;;25.33;12.57;;;;;;;2.92;62.81;95255.94;5051672;28;20443;-77
2022/01/28 10:15:03;;;;;;;26.93;12.07;;;;;;;3.11;63.28;95264.47;5052089;28;20471;-78
2022/01/28 10:17:52;;;;;;;32.77;16.67;;;;;;;2.87;63.95;95266.50;5055262;28;20452;-78
2022/01/28 10:20:20;;;;;;;22.30;12.93;;;;;;;2.74;63.68;95266.28;5055290;28;20453;-77
2022/01/28 10:22:52;;;;;;;21.80;12.80;;;;;;;2.97;62.92;95265.16;5055544;28;20445;-78
2022/01/28 10:25:27;;;;;;;28.93;15.87;;;;;;;3.03;63.49;95264.00;5054942;28;20487;-78
2022/01/28 10:28:01;;;;;;;39.17;16.30;;;;;;;3.08;63.47;95257.69;5055127;28;20520;-75
2022/01/28 10:30:28;;;;;;;36.60;17.73;;;;;;;3.21;63.60;95262.28;5054766;28;20456;-78
2022/01/28 10:33:15;;;;;;;37.40;17.90;;;;;;;3.27;62.22;95259.34;5054808;28;20479;-77
2022/01/28 10:35:50;;;;;;;36.53;19.87;;;;;;;3.32;62.26;95263.38;5055113;28;20534;-77
2022/01/28 10:38:34;;;;;;;43.23;16.10;;;;;;;3.27;62.04;95264.53;5055156;28;20936;-78
2022/01/28 10:41:09;;;;;;;31.67;16.40;;;;;;;3.31;63.27;95268.66;4973753;28;20444;-78
2022/01/28 10:43:43;;;;;;;37.50;18.23;;;;;;;3.32;62.06;95265.16;4973793;28;20440;-78
2022/01/28 10:46:10;;;;;;;49.77;22.17;;;;;;;3.39;63.08;95263.91;4973631;28;20488;-78
2022/01/28 10:48:49;;;;;;;36.10;18.20;;;;;;;3.39;61.34;95264.75;4973713;28;20915;-78
2022/01/28 10:51:17;;;;;;;36.50;18.90;;;;;;;3.40;62.77;95263.84;4973595;28;20535;-78
2022/01/28 10:54:07;;;;;;;44.90;22.70;;;;;;;3.51;63.20;95267.66;4973459;28;20445;-77
2022/01/28 10:56:51;;;;;;;32.83;18.60;;;;;;;3.63;62.93;95273.03;4973629;28;20449;-79
2022/01/28 10:59:19;;;;;;;46.53;23.50;;;;;;;3.70;63.38;95271.78;4973525;28;20444;-78
2022/01/28 11:01:48;;;;;;;43.97;23.20;;;;;;;3.79;62.93;95269.66;4941726;28;20952;-78
2022/01/28 11:04:17;;;;;;;43.33;22.67;;;;;;;3.89;61.72;95269.09;4973530;28;20460;-78
2022/01/28 11:06:45;;;;;;;56.97;24.50;;;;;;;3.98;61.70;95265.16;4973352;28;20488;-78
2022/01/28 11:09:16;;;;;;;52.77;28.23;;;;;;;4.07;62.20;95258.66;4973264;28;20464;-78
2022/01/28 11:11:43;;;;;;;57.83;27.70;;;;;;;4.13;61.27;95248.78;4973566;28;20948;-78
2022/01/28 11:14:10;;;;;;;50.17;28.40;;;;;;;4.17;61.88;95245.09;4973565;28;20460;-78
2022/01/28 11:16:38;;;;;;;54.20;29.13;;;;;;;4.19;61.93;95239.81;4973245;28;20449;-77
2022/01/28 11:19:06;;;;;;;49.30;28.60;;;;;;;4.23;61.32;95254.31;5039531;28;20448;-78
2022/01/28 11:21:45;;;;;;;61.40;30.90;;;;;;;4.32;62.14;95239.03;5054108;28;20807;-78
2022/01/28 11:24:29;;;;;;;44.37;26.73;;;;;;;4.35;61.50;95238.06;5018812;28;20433;-78
2022/01/28 11:27:02;;;;;;;37.87;21.80;;;;;;;4.30;61.42;95235.69;5053697;28;20481;-78
2022/01/28 11:29:29;;;;;;;40.40;22.50;;;;;;;4.26;62.05;95234.19;5054335;28;20441;-77
2022/01/28 11:31:58;;;;;;;44.70;20.70;;;;;;;4.29;62.55;95231.44;5054052;28;20473;-78
2022/01/28 11:34:26;;;;;;;44.50;20.50;;;;;;;4.28;61.98;95231.50;5053954;28;20464;-78
2022/01/28 11:36:55;;;;;;;50.93;25.33;;;;;;;4.29;61.83;95239.22;5054003;28;20471;-77
2022/01/28 11:39:35;;;;;;;43.83;24.07;;;;;;;4.30;62.73;95234.84;5002458;28;20446;-77
2022/01/28 11:42:06;;;;;;;48.30;25.23;;;;;;;4.30;63.28;95230.50;5053867;28;20502;-79
2022/01/28 11:44:45;;;;;;;55.37;27.93;;;;;;;4.38;63.07;95234.47;5053774;28;20449;-78
2022/01/28 11:47:22;;;;;;;41.63;22.70;;;;;;;4.44;63.81;95231.53;5053859;28;20477;-78
2022/01/28 11:50:00;;;;;;;51.53;26.37;;;;;;;4.52;64.65;95230.16;5018195;28;20967;-78
2022/01/28 11:52:30;;;;;;;47.67;28.30;;;;;;;4.53;64.58;95215.41;5053641;28;20453;-77
2022/01/28 11:55:32;;;;;;;58.67;32.80;;;;;;;4.67;63.83;95228.47;5018088;28;20438;-78
2022/01/28 11:58:00;;;;;;;54.87;26.40;;;;;;;4.77;64.20;95219.22;5053324;28;20446;-78
2022/01/28 12:00:30;;;;;;;45.80;25.00;;;;;;;4.81;64.01;95212.94;5053259;28;20452;-76
2022/01/28 12:02:57;;;;;;;53.20;25.33;;;;;;;4.85;63.00;95214.41;5053529;28;20446;-78
2022/01/28 12:05:51;;;;;;;45.33;24.70;;;;;;;4.84;63.71;95204.94;5053138;28;20448;-77
2022/01/28 12:08:19;;;;;;;54.17;28.10;;;;;;;4.89;62.92;95207.28;4972129;28;20441;-78
2022/01/28 12:10:50;;;;;;;48.83;28.47;;;;;;;4.93;62.21;95207.03;4972118;28;20445;-78
2022/01/28 12:13:20;;;;;;;54.40;27.47;;;;;;;5.02;63.12;95202.22;4972159;28;20453;-78
2022/01/28 12:16:13;;;;;;;45.00;24.83;;;;;;;5.06;63.45;95194.16;4972162;28;20482;-78
2022/01/28 12:18:53;;;;;;;44.57;23.93;;;;;;;5.26;63.76;95196.44;4972056;28;20441;-76
2022/01/28 12:21:23;;;;;;;57.63;26.27;;;;;;;5.37;63.66;95200.97;4971891;28;20883;-78
2022/01/28 12:23:51;;;;;;;58.73;30.90;;;;;;;5.45;63.91;95200.53;4972145;28;20818;-78
2022/01/28 12:26:20;;;;;;;68.53;32.67;;;;;;;5.49;63.70;95204.59;4971696;28;20489;-77
2022/01/28 12:28:52;;;;;;;66.30;34.10;;;;;;;5.54;63.94;95200.81;4971752;28;20553;-78